Fairbanks International, AK

12:02 PM AKST on February 01, 2015 (GMT -0900)
19th and Kennedy | Change Station
CLOSE
Current Station
Personal Weather Station
Location: Fairbanks, AK
Elevation: 440 ft
Nearby Weather Stations

Elev 440 ft 64.83 °N, 147.80 °W | Updated 5 minutes ago

Light Snow
Light Snow
-13.4 °F
Feels Like -13 °F
N
0.0
Wind Variable Wind from NNW

Today
High -- | Low -- °F
--% Chance of Precip.
Yesterday
High -- | Low -- °F
Precip. -- in
9:36 AM 4:34 PM
Waxing Gibbous, 96% visible
Pressure 30.48 in
Visibility 10.0 miles
Clouds Clear
Windchill -13 °F
Dew Point -16 °F
Humidity 87%
Rainfall 0.00 in
Snow Depth Not available.
UV 0 out of 12
Pollen Not available.
Air Quality Not available.
Flu Activity Not available.
METAR PAFB 011956Z AUTO 00000KT 10SM -SN CLR M31/M34 A3042 RMK SNB54 SLP321 P0000 T13061339 $ VIA AUTODIAL

More Conditions Fewer Conditions

Pressure 30.48 in
Visibility 10.0 miles
Clouds Clear
Windchill -13 °F
Dew Point -16 °F
Humidity 87%
Rainfall 0.00 in
Snow Depth Not available.
UV 0 out of 12
Pollen Not available.
Air Quality Not available.
Flu Activity Not available.
METAR PAFB 011956Z AUTO 00000KT 10SM -SN CLR M31/M34 A3042 RMK SNB54 SLP321 P0000 T13061339 $ VIA AUTODIAL

More Conditions Fewer Conditions

10-Day Weather Forecast

Almanac

Astronomy

Feb. 01, 2015 Rise Set
Actual Time
Civil Twilight
Nautical Twilight
Astronomical Twilight
Moon
Length of Visible Light
Length of Day
Tomorrow will be .
, % of the Moon is Illuminated

Today's Extremes

State Highs State Lows

Community

WunderPhotos

Upload Photos

1,792,529 photos uploaded!

WunderBlogs® & News

Nearby

Air Quality

  Air Quality AQ Index Pollutant
Not available.

Snow Depth

Station Depth Elevation

Earthquake Activity

City Distance Mag. Time & Date
Minimum magnitude displayed is 2.5.

Coastal Water Temperatures

Place Temperature

Nearby Weather Stations